createdAt,value
2024-04-24T00:02:21.049Z,9.10
2024-04-24T00:04:49.228Z,9.12
2024-04-24T00:07:18.002Z,9.10
2024-04-24T00:09:46.179Z,9.10
2024-04-24T00:12:14.098Z,9.18
2024-04-24T00:14:42.283Z,9.20
2024-04-24T00:17:11.290Z,9.10
2024-04-24T00:19:39.563Z,9.10
2024-04-24T00:22:07.652Z,9.10
2024-04-24T00:24:35.605Z,9.20
2024-04-24T00:27:03.832Z,9.10
2024-04-24T00:29:31.673Z,9.18
2024-04-24T00:32:06.243Z,9.20
2024-04-24T00:34:34.698Z,9.18
2024-04-24T00:37:02.565Z,9.20
2024-04-24T00:39:30.654Z,9.24
2024-04-24T00:41:58.617Z,9.20
2024-04-24T00:44:26.612Z,9.20
2024-04-24T00:46:54.830Z,9.20
2024-04-24T00:49:23.164Z,9.10
2024-04-24T00:51:51.004Z,9.02
2024-04-24T00:54:19.016Z,9.00
2024-04-24T00:56:47.139Z,9.00
2024-04-24T00:59:15.619Z,9.10
2024-04-24T01:01:43.676Z,9.00
2024-04-24T01:04:11.642Z,9.00
2024-04-24T01:06:39.649Z,9.00
2024-04-24T01:09:07.628Z,9.00
2024-04-24T01:11:36.036Z,9.00
2024-04-24T01:14:04.383Z,9.00
2024-04-24T01:16:38.571Z,9.04
2024-04-24T01:19:27.667Z,9.00
2024-04-24T01:22:03.679Z,9.00
2024-04-24T01:24:34.342Z,8.90
2024-04-24T01:27:02.228Z,8.94
2024-04-24T01:29:30.486Z,8.90
2024-04-24T01:31:58.706Z,8.94
2024-04-24T01:34:27.037Z,8.90
2024-04-24T01:36:55.155Z,9.00
2024-04-24T01:39:23.100Z,9.00
2024-04-24T01:41:51.151Z,9.08
2024-04-24T01:44:19.317Z,9.10
2024-04-24T01:46:47.208Z,9.02
2024-04-24T01:49:15.522Z,9.02
2024-04-24T01:51:43.414Z,9.04
2024-04-24T01:54:11.738Z,9.00
2024-04-24T01:56:39.720Z,9.00
2024-04-24T01:59:07.845Z,9.00
2024-04-24T02:01:35.796Z,9.00
2024-04-24T02:04:04.140Z,9.00
2024-04-24T02:06:32.259Z,9.00
2024-04-24T02:09:00.080Z,8.94
2024-04-24T02:11:28.275Z,8.90
2024-04-24T02:13:56.549Z,8.92
2024-04-24T02:16:24.592Z,8.96
2024-04-24T02:18:52.764Z,9.00
2024-04-24T02:21:20.786Z,9.00
2024-04-24T02:23:48.681Z,8.98
2024-04-24T02:26:16.937Z,9.00
2024-04-24T02:28:44.822Z,9.00
2024-04-24T02:31:12.817Z,9.20
2024-04-24T02:33:40.980Z,9.30
2024-04-24T02:36:09.061Z,9.46
2024-04-24T02:38:37.008Z,9.50
2024-04-24T02:41:05.058Z,9.60
2024-04-24T02:43:33.729Z,9.80
2024-04-24T02:46:01.679Z,9.86
2024-04-24T02:48:29.593Z,9.80
2024-04-24T02:50:57.451Z,9.80
2024-04-24T02:53:25.420Z,9.90
2024-04-24T02:55:53.302Z,9.90
2024-04-24T02:58:21.234Z,9.90
2024-04-24T03:00:49.357Z,10.00
2024-04-24T03:03:17.623Z,9.96
2024-04-24T03:05:45.744Z,9.98
2024-04-24T03:08:13.853Z,10.00
2024-04-24T03:10:41.890Z,10.00
2024-04-24T03:13:09.826Z,10.00
2024-04-24T03:15:37.747Z,10.00
2024-04-24T03:18:06.859Z,10.00
2024-04-24T03:20:34.857Z,10.00
2024-04-24T03:23:05.205Z,10.00
2024-04-24T03:25:33.303Z,10.00
2024-04-24T03:28:01.291Z,10.00
2024-04-24T03:30:29.396Z,10.00
2024-04-24T03:32:57.284Z,9.90
2024-04-24T03:35:25.399Z,9.90
2024-04-24T03:37:53.528Z,9.94
2024-04-24T03:40:21.422Z,10.00
2024-04-24T03:42:49.440Z,10.00
2024-04-24T03:45:17.404Z,9.92
2024-04-24T03:47:45.504Z,10.00
2024-04-24T03:50:13.737Z,10.00
2024-04-24T03:52:41.680Z,10.10
2024-04-24T03:55:09.553Z,10.10
2024-04-24T03:57:37.566Z,10.10
2024-04-24T04:00:06.299Z,10.10
2024-04-24T04:02:39.992Z,10.10
2024-04-24T04:05:07.951Z,10.14
2024-04-24T04:07:35.988Z,10.20
2024-04-24T04:10:04.256Z,10.20
2024-04-24T04:12:32.268Z,10.10
2024-04-24T04:15:00.259Z,10.16
2024-04-24T04:17:28.567Z,10.20
2024-04-24T04:19:56.662Z,10.20
2024-04-24T04:22:24.855Z,10.30
2024-04-24T04:24:52.773Z,10.30
2024-04-24T04:27:20.769Z,10.40
2024-04-24T04:29:48.568Z,10.60
2024-04-24T04:32:16.587Z,10.64
2024-04-24T04:34:45.790Z,10.62
2024-04-24T04:37:13.732Z,10.80
2024-04-24T04:39:41.791Z,10.60
2024-04-24T04:42:09.867Z,10.70
2024-04-24T04:44:37.710Z,10.72
2024-04-24T04:47:06.039Z,10.86
2024-04-24T04:49:33.980Z,11.00
2024-04-24T04:52:01.842Z,11.10
2024-04-24T04:54:29.801Z,11.18
2024-04-24T04:56:59.222Z,11.30
2024-04-24T04:59:27.183Z,11.50
2024-04-24T05:01:58.093Z,11.58
2024-04-24T05:04:27.790Z,11.62
2024-04-24T05:06:55.729Z,11.72
2024-04-24T05:09:23.680Z,11.82
2024-04-24T05:11:51.759Z,11.80
2024-04-24T05:14:19.916Z,11.70
2024-04-24T05:16:48.050Z,11.70
2024-04-24T05:19:16.118Z,11.80
2024-04-24T05:21:44.119Z,12.00
2024-04-24T05:24:12.321Z,12.16
2024-04-24T05:26:58.818Z,12.24
2024-04-24T05:29:26.821Z,12.36
2024-04-24T05:31:54.821Z,12.50
2024-04-24T05:34:23.467Z,12.76
2024-04-24T05:36:51.542Z,13.22
2024-04-24T05:39:19.491Z,13.52
2024-04-24T05:41:47.483Z,13.94
2024-04-24T05:44:15.839Z,14.48
2024-04-24T05:46:43.825Z,14.62
2024-04-24T05:49:11.764Z,14.92
2024-04-24T05:51:39.760Z,15.28
2024-04-24T05:54:07.911Z,15.46
2024-04-24T05:56:36.058Z,15.70
2024-04-24T05:59:04.144Z,16.10
2024-04-24T06:01:32.182Z,16.36
2024-04-24T06:04:00.290Z,16.78
2024-04-24T06:06:28.313Z,16.70
2024-04-24T06:08:56.348Z,16.04
2024-04-24T06:11:24.306Z,16.08
2024-04-24T06:13:52.302Z,15.90
2024-04-24T06:16:20.377Z,15.70
2024-04-24T06:18:48.539Z,15.24
2024-04-24T06:21:16.564Z,15.20
2024-04-24T06:23:44.462Z,15.12
2024-04-24T06:26:12.465Z,15.68
2024-04-24T06:28:40.673Z,16.12
2024-04-24T06:31:08.677Z,16.80
2024-04-24T06:33:36.927Z,17.50
2024-04-24T06:36:06.016Z,17.80
2024-04-24T06:38:34.041Z,18.04
2024-04-24T06:41:02.003Z,18.42
2024-04-24T06:43:29.952Z,19.00
2024-04-24T06:45:57.849Z,19.52
2024-04-24T06:48:25.953Z,19.96
2024-04-24T06:50:58.190Z,20.20
2024-04-24T06:53:26.753Z,20.38
2024-04-24T06:55:59.982Z,20.60
2024-04-24T06:58:30.249Z,20.80
2024-04-24T07:00:58.245Z,20.12
2024-04-24T07:03:27.584Z,19.80
2024-04-24T07:05:55.662Z,19.48
2024-04-24T07:08:26.429Z,19.12
2024-04-24T07:10:54.756Z,19.10
2024-04-24T07:13:22.877Z,19.40
2024-04-24T07:15:50.914Z,19.64
2024-04-24T07:18:18.963Z,19.72
2024-04-24T07:20:47.237Z,20.12
2024-04-24T07:23:16.687Z,20.30
2024-04-24T07:25:44.951Z,20.34
2024-04-24T07:28:13.029Z,20.58
2024-04-24T07:30:40.947Z,20.20
2024-04-24T07:33:09.132Z,20.10
2024-04-24T07:35:37.292Z,20.24
2024-04-24T07:38:05.266Z,21.10
2024-04-24T07:40:33.137Z,21.70
2024-04-24T07:43:01.082Z,21.48
2024-04-24T07:45:29.216Z,21.90
2024-04-24T07:47:57.377Z,22.00
2024-04-24T07:50:25.511Z,22.04
2024-04-24T07:52:53.646Z,21.18
2024-04-24T07:55:21.722Z,21.30
2024-04-24T07:57:49.746Z,20.92
2024-04-24T08:00:18.033Z,20.54
2024-04-24T08:02:46.203Z,20.74
2024-04-24T08:05:14.414Z,20.46
2024-04-24T08:07:42.349Z,20.06
2024-04-24T08:10:10.956Z,19.44
2024-04-24T08:12:38.952Z,18.74
2024-04-24T08:15:07.330Z,18.40
2024-04-24T08:17:35.272Z,18.20
2024-04-24T08:20:04.211Z,18.20
2024-04-24T08:22:32.279Z,18.30
2024-04-24T08:25:00.279Z,18.10
2024-04-24T08:27:28.388Z,18.20
2024-04-24T08:29:56.321Z,18.10
2024-04-24T08:32:24.479Z,18.04
2024-04-24T08:34:52.442Z,18.60
2024-04-24T08:37:20.371Z,18.60
2024-04-24T08:39:48.378Z,18.82
2024-04-24T08:42:16.333Z,19.46
2024-04-24T08:44:44.306Z,18.94
2024-04-24T08:47:12.403Z,18.68
2024-04-24T08:49:40.301Z,18.30
2024-04-24T08:52:08.258Z,17.92
2024-04-24T08:54:36.179Z,17.40
2024-04-24T08:57:05.049Z,17.50
2024-04-24T08:59:33.552Z,17.40
2024-04-24T09:02:04.897Z,17.20
2024-04-24T09:04:33.281Z,17.02
2024-04-24T09:07:01.834Z,16.90
2024-04-24T09:09:30.190Z,16.62
2024-04-24T09:12:04.436Z,16.36
2024-04-24T09:14:33.441Z,16.10
2024-04-24T09:17:01.980Z,15.82
2024-04-24T09:19:30.444Z,16.10
2024-04-24T09:21:58.533Z,15.90
2024-04-24T09:24:26.457Z,15.92
2024-04-24T09:26:56.588Z,16.02
2024-04-24T09:29:24.642Z,16.16
2024-04-24T09:31:52.721Z,16.40
2024-04-24T09:34:20.811Z,16.52
2024-04-24T09:36:49.155Z,16.60
2024-04-24T09:39:17.556Z,16.98
2024-04-24T09:41:48.155Z,17.10
2024-04-24T09:44:16.645Z,16.92
2024-04-24T09:46:49.141Z,17.16
2024-04-24T09:49:17.220Z,17.36
2024-04-24T09:51:45.331Z,17.50
2024-04-24T09:54:13.194Z,17.80
2024-04-24T09:56:46.856Z,18.00
2024-04-24T09:59:15.644Z,18.10
2024-04-24T10:01:48.150Z,18.16
2024-04-24T10:04:16.724Z,18.30
2024-04-24T10:06:45.733Z,18.40
2024-04-24T10:09:17.942Z,18.76
2024-04-24T10:11:50.355Z,18.90
2024-04-24T10:14:20.165Z,19.04
2024-04-24T10:16:48.133Z,18.82
2024-04-24T10:19:16.135Z,18.80
2024-04-24T10:21:45.497Z,19.12
2024-04-24T10:24:13.833Z,19.46
2024-04-24T10:26:41.845Z,19.50
2024-04-24T10:29:10.150Z,19.00
2024-04-24T10:31:38.122Z,19.02
2024-04-24T10:34:06.939Z,20.34
2024-04-24T10:36:34.927Z,21.16
2024-04-24T10:39:05.311Z,21.64
2024-04-24T10:41:33.501Z,21.80
2024-04-24T10:44:01.669Z,21.42
2024-04-24T10:46:29.685Z,21.62
2024-04-24T10:49:01.566Z,21.50
2024-04-24T10:51:33.651Z,21.84
2024-04-24T10:54:07.687Z,21.50
2024-04-24T10:56:40.564Z,20.86
2024-04-24T10:59:08.691Z,20.00
2024-04-24T11:01:46.352Z,19.84
2024-04-24T11:04:18.907Z,20.02
2024-04-24T11:06:46.872Z,20.06
2024-04-24T11:09:14.867Z,20.64
2024-04-24T11:11:43.173Z,21.60
2024-04-24T11:14:14.610Z,21.14
2024-04-24T11:16:54.771Z,20.30
2024-04-24T11:19:23.816Z,20.08
2024-04-24T11:21:51.903Z,19.78
2024-04-24T11:24:32.443Z,18.88
2024-04-24T11:27:01.338Z,18.66
2024-04-24T11:29:39.696Z,19.54
2024-04-24T11:32:08.170Z,20.52
2024-04-24T11:34:38.332Z,20.40
2024-04-24T11:37:06.450Z,20.28
2024-04-24T11:39:34.529Z,20.76
2024-04-24T11:42:02.654Z,21.26
2024-04-24T11:44:30.736Z,22.06
2024-04-24T11:46:58.978Z,22.08
2024-04-24T11:49:27.357Z,22.00
2024-04-24T11:51:55.563Z,22.58
2024-04-24T11:54:23.601Z,22.66
2024-04-24T11:56:51.795Z,23.44
2024-04-24T11:59:22.721Z,23.00
2024-04-24T12:01:50.632Z,22.90
2024-04-24T12:04:18.636Z,22.94
2024-04-24T12:06:46.624Z,22.50
2024-04-24T12:09:16.010Z,22.30
2024-04-24T12:11:45.494Z,22.32
2024-04-24T12:14:15.698Z,22.20
2024-04-24T12:16:43.791Z,22.10
2024-04-24T12:19:12.587Z,22.32
2024-04-24T12:21:40.976Z,23.06
2024-04-24T12:24:09.105Z,23.52
2024-04-24T12:26:37.178Z,23.86
2024-04-24T12:29:05.198Z,23.78
2024-04-24T12:31:33.431Z,23.00
2024-04-24T12:34:01.765Z,22.26
2024-04-24T12:36:30.014Z,21.90
2024-04-24T12:38:58.034Z,21.10
2024-04-24T12:41:26.096Z,20.70
2024-04-24T12:43:55.614Z,20.98
2024-04-24T12:46:23.922Z,21.40
2024-04-24T12:48:56.368Z,20.88
2024-04-24T12:51:24.927Z,20.86
2024-04-24T12:53:52.902Z,21.04
2024-04-24T12:56:21.032Z,20.68
2024-04-24T12:58:50.329Z,20.78
2024-04-24T13:01:21.561Z,20.60
2024-04-24T13:03:49.884Z,20.50
2024-04-24T13:06:20.391Z,20.62
2024-04-24T13:08:50.398Z,20.62
2024-04-24T13:11:18.560Z,20.92
2024-04-24T13:13:46.667Z,21.40
2024-04-24T13:16:14.618Z,21.24
2024-04-24T13:18:43.833Z,21.06
2024-04-24T13:21:11.898Z,21.00
2024-04-24T13:23:40.018Z,21.24
2024-04-24T13:26:08.076Z,21.58
2024-04-24T13:28:36.101Z,21.48
2024-04-24T13:31:06.402Z,21.20
2024-04-24T13:33:35.828Z,20.98
2024-04-24T13:36:04.379Z,20.74
2024-04-24T13:38:32.376Z,21.30
2024-04-24T13:41:06.384Z,21.48
2024-04-24T13:43:34.390Z,21.72
2024-04-24T13:46:02.449Z,21.64
2024-04-24T13:48:32.899Z,21.64
2024-04-24T13:51:01.669Z,20.90
2024-04-24T13:53:29.794Z,20.28
2024-04-24T13:55:57.788Z,19.64
2024-04-24T13:58:25.823Z,18.96
2024-04-24T14:00:54.271Z,18.58
2024-04-24T14:03:22.627Z,18.20
2024-04-24T14:05:54.261Z,17.98
2024-04-24T14:08:23.229Z,17.80
2024-04-24T14:10:51.410Z,17.40
2024-04-24T14:13:19.431Z,17.02
2024-04-24T14:15:47.366Z,16.72
2024-04-24T14:18:15.476Z,16.88
2024-04-24T14:20:43.474Z,16.70
2024-04-24T14:23:11.572Z,16.40
2024-04-24T14:25:39.585Z,16.24
2024-04-24T14:28:07.691Z,16.10
2024-04-24T14:30:35.711Z,16.00
2024-04-24T14:33:03.908Z,15.92
2024-04-24T14:35:33.417Z,16.00
2024-04-24T14:38:01.415Z,15.92
2024-04-24T14:40:29.330Z,16.00
2024-04-24T14:42:57.340Z,15.96
2024-04-24T14:45:25.382Z,16.20
2024-04-24T14:47:53.575Z,16.20
2024-04-24T14:50:21.846Z,16.32
2024-04-24T14:52:49.851Z,16.50
2024-04-24T14:55:18.127Z,16.70
2024-04-24T14:57:46.078Z,16.86
2024-04-24T15:00:19.891Z,17.20
2024-04-24T15:02:47.954Z,17.36
2024-04-24T15:05:16.656Z,17.30
2024-04-24T15:07:44.677Z,17.60
2024-04-24T15:10:12.707Z,17.42
2024-04-24T15:12:40.632Z,17.50
2024-04-24T15:15:08.652Z,17.30
2024-04-24T15:17:36.991Z,17.50
2024-04-24T15:20:05.547Z,17.72
2024-04-24T15:22:33.927Z,17.84
2024-04-24T15:25:01.901Z,17.80
2024-04-24T15:27:29.997Z,17.80
2024-04-24T15:29:57.937Z,17.84
2024-04-24T15:32:26.076Z,17.84
2024-04-24T15:34:54.899Z,17.68
2024-04-24T15:37:22.893Z,17.88
2024-04-24T15:39:50.986Z,17.90
2024-04-24T15:42:19.976Z,17.70
2024-04-24T15:44:47.972Z,17.50
2024-04-24T15:47:16.069Z,17.40
2024-04-24T15:49:44.140Z,17.40
2024-04-24T15:52:12.262Z,17.50
2024-04-24T15:54:40.196Z,17.10
2024-04-24T15:57:11.298Z,17.00
2024-04-24T15:59:39.467Z,16.90
2024-04-24T16:02:08.731Z,16.70
2024-04-24T16:04:36.870Z,16.90
2024-04-24T16:07:05.994Z,16.80
2024-04-24T16:09:34.705Z,16.80
2024-04-24T16:12:02.951Z,16.68
2024-04-24T16:14:30.953Z,16.42
2024-04-24T16:16:59.017Z,16.48
2024-04-24T16:19:26.979Z,16.40
2024-04-24T16:21:55.113Z,16.30
2024-04-24T16:24:23.314Z,16.18
2024-04-24T16:26:51.283Z,16.10
2024-04-24T16:29:19.531Z,15.90
2024-04-24T16:31:47.426Z,15.90
2024-04-24T16:34:15.407Z,16.00
2024-04-24T16:36:43.756Z,15.90
2024-04-24T16:39:11.908Z,15.90
2024-04-24T16:41:40.114Z,15.90
2024-04-24T16:44:08.089Z,15.90
2024-04-24T16:46:36.199Z,15.92
2024-04-24T16:49:04.393Z,16.00
2024-04-24T16:51:38.120Z,16.06
2024-04-24T16:54:06.335Z,16.10
2024-04-24T16:56:34.558Z,16.00
2024-04-24T16:59:02.721Z,16.00
2024-04-24T17:01:33.493Z,16.00
2024-04-24T17:04:01.563Z,16.00
2024-04-24T17:06:29.597Z,15.94
2024-04-24T17:08:57.582Z,15.72
2024-04-24T17:11:25.688Z,15.60
2024-04-24T17:13:54.290Z,15.50
2024-04-24T17:16:22.219Z,15.30
2024-04-24T17:18:50.319Z,15.20
2024-04-24T17:21:18.363Z,15.20
2024-04-24T17:23:46.261Z,15.08
2024-04-24T17:26:21.131Z,14.90
2024-04-24T17:28:55.754Z,14.84
2024-04-24T17:31:23.739Z,14.80
2024-04-24T17:33:51.721Z,14.80
2024-04-24T17:36:19.702Z,14.76
2024-04-24T17:38:47.689Z,14.66
2024-04-24T17:41:15.516Z,14.60
2024-04-24T17:43:43.602Z,14.50
2024-04-24T17:46:11.995Z,14.50
2024-04-24T17:48:40.024Z,14.20
2024-04-24T17:51:08.022Z,14.00
2024-04-24T17:53:36.163Z,13.82
2024-04-24T17:56:04.382Z,13.70
2024-04-24T17:58:32.356Z,13.70
2024-04-24T18:01:00.342Z,13.72
2024-04-24T18:03:30.370Z,13.74
2024-04-24T18:05:58.436Z,13.78
2024-04-24T18:08:26.362Z,13.80
2024-04-24T18:10:54.365Z,13.80
2024-04-24T18:13:22.458Z,13.86
2024-04-24T18:15:51.126Z,13.90
2024-04-24T18:18:20.399Z,13.88
2024-04-24T18:20:48.493Z,13.90
2024-04-24T18:23:16.615Z,13.90
2024-04-24T18:25:44.694Z,13.90
2024-04-24T18:28:13.184Z,14.00
2024-04-24T18:30:41.323Z,14.00
2024-04-24T18:33:09.530Z,14.00
2024-04-24T18:35:37.610Z,14.02
2024-04-24T18:38:05.633Z,14.10
2024-04-24T18:40:35.153Z,14.10
2024-04-24T18:43:03.184Z,14.20
2024-04-24T18:45:31.176Z,14.20
2024-04-24T18:47:59.287Z,14.12
2024-04-24T18:50:27.510Z,14.20
2024-04-24T18:52:55.875Z,14.20
2024-04-24T18:55:25.834Z,14.10
2024-04-24T18:57:53.845Z,14.00
2024-04-24T19:00:22.057Z,13.90
2024-04-24T19:02:50.260Z,13.90
2024-04-24T19:05:20.343Z,13.80
2024-04-24T19:07:48.480Z,13.80
2024-04-24T19:10:16.970Z,13.78
2024-04-24T19:12:45.075Z,13.80
2024-04-24T19:15:13.101Z,13.70
2024-04-24T19:17:43.822Z,13.50
2024-04-24T19:20:12.003Z,13.54
2024-04-24T19:22:41.290Z,13.50
2024-04-24T19:25:09.899Z,13.24
2024-04-24T19:27:41.541Z,12.90
2024-04-24T19:30:10.983Z,12.70
2024-04-24T19:32:39.619Z,12.60
2024-04-24T19:35:08.352Z,12.60
2024-04-24T19:37:36.473Z,12.60
2024-04-24T19:40:05.897Z,12.58
2024-04-24T19:42:33.995Z,12.50
2024-04-24T19:45:02.360Z,12.50
2024-04-24T19:47:30.568Z,12.50
2024-04-24T19:49:59.249Z,12.40
2024-04-24T19:52:27.365Z,12.50
2024-04-24T19:54:55.397Z,12.50
2024-04-24T19:57:23.360Z,12.40
2024-04-24T19:59:51.347Z,12.58
2024-04-24T20:02:21.121Z,12.50
2024-04-24T20:04:50.226Z,12.58
2024-04-24T20:07:18.166Z,12.50
2024-04-24T20:09:46.630Z,12.50
2024-04-24T20:12:14.816Z,12.50
2024-04-24T20:14:42.880Z,12.30
2024-04-24T20:17:10.910Z,12.20
2024-04-24T20:19:39.876Z,12.30
2024-04-24T20:22:07.864Z,12.40
2024-04-24T20:24:35.795Z,12.46
2024-04-24T20:27:03.906Z,12.50
2024-04-24T20:29:34.510Z,12.60
2024-04-24T20:32:04.094Z,12.60
2024-04-24T20:34:33.058Z,12.70
2024-04-24T20:37:01.142Z,12.50
2024-04-24T20:39:29.144Z,12.50
2024-04-24T20:41:57.136Z,12.60
2024-04-24T20:44:25.093Z,12.60
2024-04-24T20:46:53.487Z,12.60
2024-04-24T20:49:21.720Z,12.60
2024-04-24T20:51:50.392Z,12.60
2024-04-24T20:54:18.808Z,12.50
2024-04-24T20:56:46.747Z,12.40
2024-04-24T20:59:14.634Z,12.50
2024-04-24T21:01:42.572Z,12.20
2024-04-24T21:04:10.528Z,12.20
2024-04-24T21:06:38.564Z,12.00
2024-04-24T21:09:07.356Z,11.90
2024-04-24T21:11:35.546Z,11.80
2024-04-24T21:14:03.667Z,11.80
2024-04-24T21:16:32.442Z,11.80
2024-04-24T21:19:00.581Z,11.90
2024-04-24T21:21:28.978Z,11.90
2024-04-24T21:23:57.270Z,11.90
2024-04-24T21:26:25.382Z,11.90
2024-04-24T21:28:53.342Z,11.84
2024-04-24T21:31:21.232Z,11.84
2024-04-24T21:33:49.112Z,11.80
2024-04-24T21:36:17.040Z,11.62
2024-04-24T21:38:45.092Z,11.58
2024-04-24T21:41:22.760Z,11.54
2024-04-24T21:43:51.037Z,11.50
2024-04-24T21:46:19.651Z,11.40
2024-04-24T21:48:47.801Z,11.40
2024-04-24T21:51:15.921Z,11.50
2024-04-24T21:53:43.986Z,11.60
2024-04-24T21:56:11.957Z,11.60
2024-04-24T21:58:40.815Z,11.62
2024-04-24T22:01:09.039Z,11.70
2024-04-24T22:03:37.234Z,11.70
2024-04-24T22:06:06.151Z,11.70
2024-04-24T22:08:34.414Z,11.80
2024-04-24T22:11:02.501Z,11.70
2024-04-24T22:13:30.595Z,11.72
2024-04-24T22:15:58.625Z,11.72
2024-04-24T22:18:27.255Z,11.72
2024-04-24T22:20:55.449Z,11.60
2024-04-24T22:23:23.474Z,11.50
2024-04-24T22:25:51.395Z,11.50
2024-04-24T22:28:19.272Z,11.30
2024-04-24T22:30:47.793Z,11.20
2024-04-24T22:33:15.792Z,11.10
2024-04-24T22:35:43.979Z,11.00
2024-04-24T22:38:12.275Z,10.90
2024-04-24T22:40:40.592Z,10.80
2024-04-24T22:43:08.534Z,10.82
2024-04-24T22:45:36.446Z,10.80
2024-04-24T22:48:04.781Z,10.80
2024-04-24T22:50:33.696Z,10.90
2024-04-24T22:53:01.803Z,10.90
2024-04-24T22:55:29.834Z,10.90
2024-04-24T22:57:57.713Z,10.90
2024-04-24T23:00:25.658Z,10.94
2024-04-24T23:02:53.613Z,11.00
2024-04-24T23:05:21.606Z,10.92
2024-04-24T23:07:49.491Z,10.90
2024-04-24T23:10:17.466Z,10.90
2024-04-24T23:12:45.325Z,10.90
2024-04-24T23:15:13.347Z,10.80
2024-04-24T23:17:41.374Z,10.90
2024-04-24T23:20:09.679Z,10.92
2024-04-24T23:22:37.615Z,11.00
2024-04-24T23:25:05.975Z,11.00
2024-04-24T23:27:33.961Z,11.00
2024-04-24T23:30:02.521Z,11.00
2024-04-24T23:32:30.820Z,11.00
2024-04-24T23:34:58.757Z,11.00
2024-04-24T23:37:26.719Z,11.10
2024-04-24T23:39:54.730Z,11.10
2024-04-24T23:42:22.603Z,11.18
2024-04-24T23:44:50.475Z,11.20
2024-04-24T23:47:18.543Z,11.10
2024-04-24T23:49:46.686Z,11.00
2024-04-24T23:52:14.654Z,10.84
2024-04-24T23:54:42.640Z,10.70
2024-04-24T23:57:10.777Z,10.60
2024-04-24T23:59:38.717Z,10.50
